Dansville, New York
Current Conditions -  °F | °C
As of 3:54 AM on Thursday 23 Oct 2014 (Local Time) from KDSV Reporting Station
Broken Clouds Broken Clouds  
Wind Chill:   Ceiling: 2600
Heat Index:   Visibility: 10mi
Dew Point:   Wind: 8mph
Humidity: 93%   Direction: 340°NNW
Pressure: 30.09"   Gusts: NA
Location:  42.56°N, 77.7°W
Report Text: KDSV 230754Z AUTO 34007KT 10SM BKN026 06/05 A3009 RMK AO2 SLP201 T00610050
Loading
Personal Weather Stations






























Interactive Weather Map
Tropical Storm Tracking
New forecast layout! Learn more

10-Day Weather Forecast

Advertisements
Track Severe Weather on mobile